26°C Temp
20°C Dewpoint
70% Humidity
Temperature
19 KM/H
12 MPH
10 KTS
130°
South East

Wind Speed
Partly Cloudy
Conditions
Pressure 1012.92 (hPa) - 29.91 (in)
Visibility 6.2 (mi) - 10.0 (km)

Current Conditions
LEMG
Location 9(km)
Metar :LEMG 171530Z 13010KT 100V160 9999 FEW045 26/20 Q1013 NOSIG
Fri 17th September 17:30 pm

Airport
  Metar Aviation API Data Provided by https://www.checkwx.com/ PHP scripts by weather34.com ©2021